createdAt,value
2018-08-23T00:01:28.180Z,18.60
2018-08-23T00:04:06.809Z,18.60
2018-08-23T00:06:35.673Z,18.60
2018-08-23T00:09:06.178Z,18.60
2018-08-23T00:11:37.333Z,18.50
2018-08-23T00:14:05.889Z,18.50
2018-08-23T00:16:50.783Z,18.40
2018-08-23T00:19:19.470Z,18.40
2018-08-23T00:21:48.964Z,18.40
2018-08-23T00:24:19.659Z,18.40
2018-08-23T00:26:50.237Z,18.40
2018-08-23T00:29:25.948Z,18.40
2018-08-23T00:31:56.416Z,18.40
2018-08-23T00:34:26.409Z,18.40
2018-08-23T00:36:55.389Z,18.40
2018-08-23T00:39:24.025Z,18.40
2018-08-23T00:41:57.811Z,18.40
2018-08-23T00:44:26.353Z,18.40
2018-08-23T00:46:55.693Z,18.30
2018-08-23T00:49:32.216Z,18.30
2018-08-23T00:52:00.685Z,18.30
2018-08-23T00:54:29.163Z,18.30
2018-08-23T00:56:57.678Z,18.20
2018-08-23T00:59:26.165Z,18.20
2018-08-23T01:02:11.185Z,18.20
2018-08-23T01:04:44.101Z,18.20
2018-08-23T01:07:21.661Z,18.10
2018-08-23T01:09:50.797Z,18.10
2018-08-23T01:12:20.089Z,18.10
2018-08-23T01:14:50.833Z,18.10
2018-08-23T01:17:19.416Z,18.10
2018-08-23T01:19:57.428Z,18.10
2018-08-23T01:22:25.886Z,18.00
2018-08-23T01:24:54.393Z,18.00
2018-08-23T01:27:28.205Z,18.00
2018-08-23T01:29:56.673Z,18.00
2018-08-23T01:32:31.279Z,18.00
2018-08-23T01:34:59.787Z,18.00
2018-08-23T01:37:36.959Z,17.90
2018-08-23T01:40:07.981Z,17.90
2018-08-23T01:42:37.565Z,17.90
2018-08-23T01:45:07.137Z,17.80
2018-08-23T01:48:10.453Z,17.80
2018-08-23T01:50:39.091Z,17.80
2018-08-23T01:53:07.619Z,17.80
2018-08-23T01:55:36.154Z,17.70
2018-08-23T01:58:04.733Z,17.70
2018-08-23T02:00:34.433Z,17.70
2018-08-23T02:03:03.476Z,17.70
2018-08-23T02:05:32.265Z,17.70
2018-08-23T02:08:00.852Z,17.70
2018-08-23T02:10:29.448Z,17.70
2018-08-23T02:12:58.664Z,17.70
2018-08-23T02:15:35.423Z,17.60
2018-08-23T02:18:04.525Z,17.50
2018-08-23T02:20:33.008Z,17.60
2018-08-23T02:23:04.573Z,17.50
2018-08-23T02:25:33.320Z,17.50
2018-08-23T02:28:03.073Z,17.50
2018-08-23T02:30:45.978Z,17.50
2018-08-23T02:33:14.969Z,17.40
2018-08-23T02:35:56.018Z,17.40
2018-08-23T02:38:25.338Z,17.40
2018-08-23T02:40:53.827Z,17.40
2018-08-23T02:43:22.321Z,17.30
2018-08-23T02:45:52.836Z,17.30
2018-08-23T02:48:21.847Z,17.30
2018-08-23T02:50:51.033Z,17.30
2018-08-23T02:53:43.977Z,17.40
2018-08-23T02:56:17.868Z,17.40
2018-08-23T02:58:59.544Z,17.40
2018-08-23T03:01:29.930Z,17.40
2018-08-23T03:04:10.353Z,17.50
2018-08-23T03:06:44.071Z,17.40
2018-08-23T03:09:17.978Z,17.40
2018-08-23T03:11:48.375Z,17.30
2018-08-23T03:14:17.668Z,17.40
2018-08-23T03:16:54.708Z,17.30
2018-08-23T03:19:23.196Z,17.40
2018-08-23T03:22:00.269Z,17.30
2018-08-23T03:24:28.751Z,17.30
2018-08-23T03:26:57.251Z,17.30
2018-08-23T03:29:25.793Z,17.30
2018-08-23T03:31:54.252Z,17.20
2018-08-23T03:34:22.702Z,17.20
2018-08-23T03:36:51.216Z,17.20
2018-08-23T03:39:19.869Z,17.20
2018-08-23T03:41:48.332Z,17.20
2018-08-23T03:44:24.549Z,17.20
2018-08-23T03:46:53.975Z,17.10
2018-08-23T03:49:57.997Z,17.20
2018-08-23T03:52:31.931Z,17.20
2018-08-23T03:55:01.490Z,17.20
2018-08-23T03:57:35.237Z,17.10
2018-08-23T04:00:03.924Z,17.10
2018-08-23T04:02:32.442Z,17.10
2018-08-23T04:05:08.153Z,17.10
2018-08-23T04:07:37.789Z,17.20
2018-08-23T04:10:06.321Z,17.20
2018-08-23T04:12:36.681Z,17.20
2018-08-23T04:15:23.311Z,17.20
2018-08-23T04:17:52.154Z,17.20
2018-08-23T04:20:20.754Z,17.30
2018-08-23T04:22:49.267Z,17.30
2018-08-23T04:25:17.695Z,17.20
2018-08-23T04:27:46.122Z,17.30
2018-08-23T04:30:14.562Z,17.30
2018-08-23T04:32:46.154Z,17.30
2018-08-23T04:35:21.239Z,17.30
2018-08-23T04:37:50.266Z,17.40
2018-08-23T04:40:18.802Z,17.40
2018-08-23T04:42:47.391Z,17.40
2018-08-23T04:45:33.386Z,17.30
2018-08-23T04:48:03.796Z,17.40
2018-08-23T04:50:32.283Z,17.40
2018-08-23T04:53:00.889Z,17.40
2018-08-23T04:55:29.346Z,17.40
2018-08-23T04:57:58.586Z,17.40
2018-08-23T05:00:27.810Z,17.40
2018-08-23T05:02:56.323Z,17.40
2018-08-23T05:05:25.014Z,17.40
2018-08-23T05:07:53.521Z,17.50
2018-08-23T05:10:22.024Z,17.50
2018-08-23T05:12:50.514Z,17.60
2018-08-23T05:15:18.954Z,17.70
2018-08-23T05:17:47.499Z,17.80
2018-08-23T05:20:19.287Z,17.90
2018-08-23T05:22:56.161Z,17.90
2018-08-23T05:25:25.207Z,17.90
2018-08-23T05:28:10.287Z,18.00
2018-08-23T05:30:38.761Z,18.10
2018-08-23T05:33:12.634Z,18.20
2018-08-23T05:35:41.162Z,18.30
2018-08-23T05:38:10.214Z,18.30
2018-08-23T05:40:44.122Z,18.30
2018-08-23T05:43:13.086Z,18.30
2018-08-23T05:45:47.433Z,18.40
2018-08-23T05:48:26.117Z,18.50
2018-08-23T05:50:54.675Z,18.60
2018-08-23T05:53:23.194Z,18.70
2018-08-23T05:55:54.967Z,18.90
2018-08-23T05:58:26.826Z,19.00
2018-08-23T06:00:55.376Z,19.30
2018-08-23T06:03:23.891Z,19.40
2018-08-23T06:05:52.624Z,19.50
2018-08-23T06:08:21.186Z,19.70
2018-08-23T06:10:55.169Z,19.90
2018-08-23T06:13:23.642Z,19.90
2018-08-23T06:15:57.166Z,20.10
2018-08-23T06:18:26.362Z,20.30
2018-08-23T06:20:54.873Z,20.60
2018-08-23T06:23:33.289Z,20.80
2018-08-23T06:26:02.433Z,20.90
2018-08-23T06:28:30.894Z,20.90
2018-08-23T06:31:00.342Z,21.20
2018-08-23T06:33:38.978Z,21.30
2018-08-23T06:36:08.766Z,21.60
2018-08-23T06:38:38.110Z,21.70
2018-08-23T06:41:07.901Z,21.90
2018-08-23T06:43:36.438Z,22.00
2018-08-23T06:46:05.395Z,22.40
2018-08-23T06:48:33.900Z,22.20
2018-08-23T06:51:03.333Z,22.50
2018-08-23T06:53:47.694Z,22.60
2018-08-23T06:56:17.676Z,22.90
2018-08-23T06:58:46.131Z,23.00
2018-08-23T07:01:31.136Z,23.00
2018-08-23T07:04:10.450Z,22.80
2018-08-23T07:06:39.837Z,22.90
2018-08-23T07:09:09.941Z,23.00
2018-08-23T07:11:38.516Z,22.90
2018-08-23T07:14:13.787Z,22.90
2018-08-23T07:16:43.422Z,23.20
2018-08-23T07:19:25.390Z,23.50
2018-08-23T07:21:54.633Z,23.70
2018-08-23T07:24:37.002Z,23.80
2018-08-23T07:27:06.908Z,23.80
2018-08-23T07:29:35.389Z,23.90
2018-08-23T07:32:06.106Z,24.00
2018-08-23T07:34:34.934Z,24.20
2018-08-23T07:37:09.665Z,24.30
2018-08-23T07:39:38.194Z,24.40
2018-08-23T07:42:06.652Z,24.60
2018-08-23T07:44:35.298Z,24.70
2018-08-23T07:47:03.838Z,25.00
2018-08-23T07:49:32.398Z,25.20
2018-08-23T07:52:00.855Z,25.40
2018-08-23T07:54:29.358Z,25.80
2018-08-23T07:56:57.807Z,25.90
2018-08-23T07:59:26.285Z,26.00
2018-08-23T08:01:54.850Z,26.30
2018-08-23T08:04:23.335Z,26.30
2018-08-23T08:06:51.793Z,26.50
2018-08-23T08:09:26.050Z,26.60
2018-08-23T08:12:00.491Z,26.80
2018-08-23T08:14:37.523Z,26.90
2018-08-23T08:17:13.406Z,27.00
2018-08-23T08:19:46.414Z,26.80
2018-08-23T08:22:14.945Z,27.10
2018-08-23T08:24:43.441Z,27.60
2018-08-23T08:27:11.967Z,27.50
2018-08-23T08:29:40.598Z,27.80
2018-08-23T08:32:10.521Z,27.80
2018-08-23T08:34:43.895Z,27.90
2018-08-23T08:37:12.396Z,28.20
2018-08-23T08:39:41.046Z,28.30
2018-08-23T08:42:09.598Z,28.60
2018-08-23T08:44:38.133Z,28.70
2018-08-23T08:47:06.613Z,28.60
2018-08-23T08:49:35.658Z,29.00
2018-08-23T08:52:04.209Z,29.30
2018-08-23T08:54:32.705Z,29.40
2018-08-23T08:57:01.174Z,29.40
2018-08-23T08:59:31.391Z,29.50
2018-08-23T09:02:00.286Z,29.70
2018-08-23T09:04:34.026Z,29.90
2018-08-23T09:07:02.489Z,30.20
2018-08-23T09:09:32.395Z,30.70
2018-08-23T09:12:02.677Z,30.40
2018-08-23T09:14:31.193Z,30.70
2018-08-23T09:16:59.971Z,30.80
2018-08-23T09:19:39.557Z,31.10
2018-08-23T09:22:13.426Z,31.30
2018-08-23T09:24:42.041Z,31.20
2018-08-23T09:27:18.107Z,31.40
2018-08-23T09:29:46.583Z,31.50
2018-08-23T09:32:20.973Z,31.40
2018-08-23T09:34:49.845Z,31.30
2018-08-23T09:37:18.278Z,31.60
2018-08-23T09:39:46.744Z,31.60
2018-08-23T09:42:15.334Z,31.50
2018-08-23T09:44:58.643Z,31.80
2018-08-23T09:47:27.439Z,31.90
2018-08-23T09:49:56.426Z,31.80
2018-08-23T09:52:28.362Z,31.60
2018-08-23T09:54:56.837Z,31.80
2018-08-23T09:57:25.645Z,32.20
2018-08-23T09:59:55.154Z,32.70
2018-08-23T10:02:28.917Z,33.10
2018-08-23T10:05:01.621Z,33.20
2018-08-23T10:07:35.326Z,33.60
2018-08-23T10:10:09.057Z,33.60
2018-08-23T10:12:42.653Z,33.50
2018-08-23T10:15:16.294Z,33.50
2018-08-23T10:17:49.943Z,33.50
2018-08-23T10:20:23.753Z,33.60
2018-08-23T10:23:04.150Z,33.70
2018-08-23T10:25:41.471Z,33.60
2018-08-23T10:28:12.005Z,33.70
2018-08-23T10:30:40.708Z,33.90
2018-08-23T10:33:09.193Z,34.00
2018-08-23T10:35:38.009Z,33.50
2018-08-23T10:38:07.349Z,34.00
2018-08-23T10:40:35.897Z,33.90
2018-08-23T10:43:04.417Z,33.50
2018-08-23T10:45:32.942Z,33.40
2018-08-23T10:48:06.802Z,33.60
2018-08-23T10:50:35.318Z,33.80
2018-08-23T10:53:03.869Z,33.80
2018-08-23T10:55:32.393Z,34.10
2018-08-23T10:58:00.895Z,34.40
2018-08-23T11:00:29.402Z,34.40
2018-08-23T11:02:57.973Z,34.50
2018-08-23T11:05:26.444Z,34.80
2018-08-23T11:08:00.334Z,34.80
2018-08-23T11:10:34.065Z,35.00
2018-08-23T11:13:07.842Z,35.10
2018-08-23T11:15:36.306Z,34.90
2018-08-23T11:18:10.074Z,34.70
2018-08-23T11:20:45.174Z,34.80
2018-08-23T11:23:16.246Z,34.60
2018-08-23T11:25:44.817Z,34.30
2018-08-23T11:28:18.666Z,34.60
2018-08-23T11:30:47.136Z,34.90
2018-08-23T11:33:15.692Z,35.10
2018-08-23T11:35:44.201Z,35.00
2018-08-23T11:38:12.669Z,34.80
2018-08-23T11:40:41.178Z,35.00
2018-08-23T11:43:09.646Z,35.30
2018-08-23T11:45:38.178Z,35.20
2018-08-23T11:48:06.454Z,34.90
2018-08-23T11:50:35.106Z,34.80
2018-08-23T11:53:03.715Z,34.90
2018-08-23T11:55:32.187Z,34.60
2018-08-23T11:58:00.751Z,34.90
2018-08-23T12:00:29.175Z,35.20
2018-08-23T12:02:57.765Z,35.30
2018-08-23T12:05:26.291Z,35.20
2018-08-23T12:07:55.341Z,35.40
2018-08-23T12:10:24.638Z,35.50
2018-08-23T12:12:54.210Z,35.70
2018-08-23T12:15:28.465Z,35.90
2018-08-23T12:17:57.281Z,36.00
2018-08-23T12:20:25.813Z,36.00
2018-08-23T12:22:54.311Z,35.80
2018-08-23T12:25:22.817Z,36.00
2018-08-23T12:27:56.610Z,36.20
2018-08-23T12:30:25.148Z,36.20
2018-08-23T12:32:53.739Z,36.20
2018-08-23T12:35:22.474Z,36.30
2018-08-23T12:38:00.702Z,35.90
2018-08-23T12:40:36.276Z,35.90
2018-08-23T12:43:13.679Z,35.70
2018-08-23T12:45:44.150Z,35.80
2018-08-23T12:48:13.811Z,35.20
2018-08-23T12:50:43.349Z,34.90
2018-08-23T12:53:11.826Z,35.10
2018-08-23T12:55:40.610Z,35.20
2018-08-23T12:58:12.170Z,35.30
2018-08-23T13:00:41.802Z,35.20
2018-08-23T13:03:10.466Z,34.90
2018-08-23T13:05:39.218Z,34.90
2018-08-23T13:08:07.854Z,34.60
2018-08-23T13:10:36.906Z,34.90
2018-08-23T13:13:05.653Z,35.10
2018-08-23T13:15:34.175Z,35.30
2018-08-23T13:18:03.158Z,35.30
2018-08-23T13:20:31.741Z,35.10
2018-08-23T13:23:00.193Z,34.60
2018-08-23T13:25:28.729Z,35.00
2018-08-23T13:27:57.269Z,34.90
2018-08-23T13:30:25.772Z,34.90
2018-08-23T13:32:54.237Z,34.90
2018-08-23T13:35:22.805Z,34.80
2018-08-23T13:37:51.326Z,34.70
2018-08-23T13:40:20.292Z,34.60
2018-08-23T13:42:49.324Z,34.60
2018-08-23T13:45:17.969Z,34.60
2018-08-23T13:47:46.478Z,34.60
2018-08-23T13:50:14.934Z,34.50
2018-08-23T13:52:43.527Z,34.30
2018-08-23T13:55:12.058Z,34.30
2018-08-23T13:57:40.729Z,34.20
2018-08-23T14:00:13.442Z,34.00
2018-08-23T14:02:42.041Z,33.90
2018-08-23T14:05:10.577Z,34.00
2018-08-23T14:07:39.171Z,34.10
2018-08-23T14:10:07.633Z,34.10
2018-08-23T14:12:36.104Z,33.90
2018-08-23T14:15:04.708Z,33.80
2018-08-23T14:17:33.166Z,33.70
2018-08-23T14:20:01.665Z,33.80
2018-08-23T14:22:30.206Z,33.80
2018-08-23T14:24:58.676Z,33.70
2018-08-23T14:27:27.142Z,33.80
2018-08-23T14:29:55.607Z,33.60
2018-08-23T14:32:24.068Z,33.70
2018-08-23T14:34:52.593Z,33.60
2018-08-23T14:37:21.127Z,33.50
2018-08-23T14:39:49.619Z,33.60
2018-08-23T14:42:18.123Z,33.60
2018-08-23T14:44:46.580Z,33.70
2018-08-23T14:47:20.489Z,33.60
2018-08-23T14:49:48.976Z,33.60
2018-08-23T14:52:17.546Z,33.60
2018-08-23T14:54:46.043Z,33.50
2018-08-23T14:57:19.645Z,33.50
2018-08-23T14:59:48.093Z,33.50
2018-08-23T15:02:16.598Z,33.50
2018-08-23T15:04:48.969Z,33.40
2018-08-23T15:07:17.869Z,33.30
2018-08-23T15:09:46.522Z,33.30
2018-08-23T15:12:15.018Z,33.30
2018-08-23T15:14:43.473Z,33.20
2018-08-23T15:17:11.926Z,33.00
2018-08-23T15:19:40.907Z,32.80
2018-08-23T15:22:10.323Z,32.70
2018-08-23T15:24:39.091Z,32.60
2018-08-23T15:27:07.743Z,32.60
2018-08-23T15:29:36.067Z,32.60
2018-08-23T15:32:04.565Z,32.60
2018-08-23T15:34:33.122Z,32.60
2018-08-23T15:37:01.726Z,32.60
2018-08-23T15:39:30.282Z,32.40
2018-08-23T15:41:58.711Z,32.20
2018-08-23T15:44:27.153Z,32.10
2018-08-23T15:46:55.650Z,32.10
2018-08-23T15:49:24.228Z,32.00
2018-08-23T15:51:52.777Z,31.90
2018-08-23T15:54:21.286Z,31.80
2018-08-23T15:56:49.734Z,31.80
2018-08-23T15:59:18.936Z,31.90
2018-08-23T16:01:47.432Z,31.60
2018-08-23T16:04:15.953Z,31.60
2018-08-23T16:06:45.121Z,31.60
2018-08-23T16:09:13.707Z,31.60
2018-08-23T16:11:42.197Z,31.50
2018-08-23T16:14:10.714Z,31.40
2018-08-23T16:16:44.678Z,31.40
2018-08-23T16:19:17.397Z,31.30
2018-08-23T16:21:50.165Z,31.10
2018-08-23T16:24:18.693Z,31.00
2018-08-23T16:26:52.622Z,30.90
2018-08-23T16:29:21.238Z,30.90
2018-08-23T16:31:49.829Z,30.90
2018-08-23T16:34:18.386Z,30.80
2018-08-23T16:36:46.878Z,30.80
2018-08-23T16:39:15.391Z,30.70
2018-08-23T16:41:43.989Z,30.60
2018-08-23T16:44:12.649Z,30.50
2018-08-23T16:46:41.218Z,30.40
2018-08-23T16:49:09.743Z,30.30
2018-08-23T16:51:38.264Z,30.30
2018-08-23T16:54:06.861Z,30.30
2018-08-23T16:56:35.438Z,30.20
2018-08-23T16:59:04.002Z,30.10
2018-08-23T17:01:32.536Z,29.90
2018-08-23T17:04:01.098Z,30.00
2018-08-23T17:06:29.722Z,30.00
2018-08-23T17:08:58.268Z,29.80
2018-08-23T17:11:26.955Z,29.80
2018-08-23T17:13:55.469Z,29.80
2018-08-23T17:16:29.285Z,29.80
2018-08-23T17:18:57.809Z,29.60
2018-08-23T17:21:26.341Z,29.50
2018-08-23T17:23:54.976Z,29.40
2018-08-23T17:26:24.017Z,29.30
2018-08-23T17:28:52.538Z,29.30
2018-08-23T17:31:21.129Z,29.30
2018-08-23T17:33:49.742Z,29.20
2018-08-23T17:36:18.302Z,29.00
2018-08-23T17:38:47.006Z,29.00
2018-08-23T17:41:16.130Z,28.90
2018-08-23T17:43:44.893Z,28.90
2018-08-23T17:46:13.482Z,28.90
2018-08-23T17:48:42.069Z,28.80
2018-08-23T17:51:10.538Z,28.80
2018-08-23T17:53:39.021Z,28.80
2018-08-23T17:56:07.601Z,28.80
2018-08-23T17:58:36.094Z,28.80
2018-08-23T18:01:04.691Z,28.80
2018-08-23T18:03:33.248Z,28.70
2018-08-23T18:06:01.772Z,28.70
2018-08-23T18:08:30.374Z,28.60
2018-08-23T18:10:58.939Z,28.70
2018-08-23T18:13:27.525Z,28.60
2018-08-23T18:16:01.578Z,28.50
2018-08-23T18:18:30.222Z,28.50
2018-08-23T18:20:58.806Z,28.40
2018-08-23T18:23:27.494Z,28.40
2018-08-23T18:25:56.014Z,28.30
2018-08-23T18:28:24.625Z,28.20
2018-08-23T18:30:53.296Z,28.20
2018-08-23T18:33:21.822Z,28.10
2018-08-23T18:35:50.407Z,28.10
2018-08-23T18:38:18.961Z,28.00
2018-08-23T18:40:47.481Z,27.90
2018-08-23T18:43:16.046Z,27.80
2018-08-23T18:45:44.587Z,27.80
2018-08-23T18:48:13.168Z,27.70
2018-08-23T18:50:41.714Z,27.60
2018-08-23T18:53:10.220Z,27.50
2018-08-23T18:55:38.881Z,27.50
2018-08-23T18:58:07.420Z,27.50
2018-08-23T19:00:35.918Z,27.40
2018-08-23T19:03:04.539Z,27.30
2018-08-23T19:05:33.051Z,27.20
2018-08-23T19:08:01.639Z,27.10
2018-08-23T19:10:30.191Z,27.00
2018-08-23T19:12:58.832Z,26.90
2018-08-23T19:17:35.572Z,26.90
2018-08-23T19:20:04.116Z,26.80
2018-08-23T19:22:32.720Z,26.70
2018-08-23T19:25:01.240Z,26.60
2018-08-23T19:27:30.354Z,26.50
2018-08-23T19:30:00.156Z,26.50
2018-08-23T19:32:28.720Z,26.40
2018-08-23T19:34:57.201Z,26.30
2018-08-23T19:37:25.749Z,26.30
2018-08-23T19:39:54.486Z,26.20
2018-08-23T19:42:23.152Z,26.20
2018-08-23T19:44:56.533Z,26.10
2018-08-23T19:47:30.481Z,26.00
2018-08-23T19:50:01.258Z,25.90
2018-08-23T19:52:30.503Z,25.90
2018-08-23T19:54:58.989Z,25.80
2018-08-23T19:57:27.467Z,25.70
2018-08-23T19:59:56.002Z,25.70
2018-08-23T20:02:24.475Z,25.60
2018-08-23T20:04:54.898Z,25.60
2018-08-23T20:07:23.641Z,25.60
2018-08-23T20:09:52.094Z,25.50
2018-08-23T20:12:20.621Z,25.50
2018-08-23T20:14:49.139Z,25.40
2018-08-23T20:17:17.661Z,25.40
2018-08-23T20:19:46.222Z,25.40
2018-08-23T20:22:14.720Z,25.40
2018-08-23T20:24:43.189Z,25.30
2018-08-23T20:27:11.857Z,25.30
2018-08-23T20:29:40.358Z,25.30
2018-08-23T20:32:08.882Z,25.30
2018-08-23T20:34:37.440Z,25.30
2018-08-23T20:37:06.160Z,25.30
2018-08-23T20:39:34.685Z,25.20
2018-08-23T20:42:03.158Z,25.10
2018-08-23T20:44:31.678Z,25.10
2018-08-23T20:47:00.287Z,25.00
2018-08-23T20:49:28.794Z,25.00
2018-08-23T20:51:57.269Z,24.90
2018-08-23T20:54:25.758Z,25.00
2018-08-23T20:56:54.341Z,24.90
2018-08-23T20:59:22.834Z,24.90
2018-08-23T21:01:51.359Z,24.80
2018-08-23T21:04:19.943Z,24.80
2018-08-23T21:06:48.402Z,24.70
2018-08-23T21:09:16.925Z,24.70
2018-08-23T21:11:45.418Z,24.70
2018-08-23T21:14:13.932Z,24.70
2018-08-23T21:16:42.438Z,24.70
2018-08-23T21:19:11.933Z,24.70
2018-08-23T21:21:40.457Z,24.70
2018-08-23T21:24:08.923Z,24.70
2018-08-23T21:26:37.442Z,24.70
2018-08-23T21:29:05.937Z,24.60
2018-08-23T21:31:34.377Z,24.70
2018-08-23T21:34:02.861Z,24.70
2018-08-23T21:36:31.320Z,24.70
2018-08-23T21:38:59.942Z,24.60
2018-08-23T21:41:28.416Z,24.60
2018-08-23T21:43:56.861Z,24.50
2018-08-23T21:46:25.354Z,24.50
2018-08-23T21:48:53.814Z,24.50
2018-08-23T21:51:22.303Z,24.40
2018-08-23T21:53:50.854Z,24.40
2018-08-23T21:56:19.333Z,24.40
2018-08-23T21:58:47.779Z,24.30
2018-08-23T22:01:16.247Z,24.30
2018-08-23T22:03:44.737Z,24.20
2018-08-23T22:06:13.173Z,24.20
2018-08-23T22:08:41.670Z,24.20
2018-08-23T22:11:10.151Z,24.10
2018-08-23T22:13:38.663Z,24.00
2018-08-23T22:16:07.191Z,24.00
2018-08-23T22:18:35.678Z,23.90
2018-08-23T22:21:04.391Z,23.90
2018-08-23T22:23:32.872Z,23.80
2018-08-23T22:26:01.413Z,23.80
2018-08-23T22:28:29.929Z,23.80
2018-08-23T22:30:58.453Z,23.70
2018-08-23T22:33:26.980Z,23.70
2018-08-23T22:35:55.433Z,23.70
2018-08-23T22:38:23.954Z,23.60
2018-08-23T22:40:52.508Z,23.60
2018-08-23T22:43:20.970Z,23.50
2018-08-23T22:45:49.558Z,23.50
2018-08-23T22:48:18.080Z,23.40
2018-08-23T22:50:46.527Z,23.40
2018-08-23T22:53:15.001Z,23.40
2018-08-23T22:55:43.499Z,23.30
2018-08-23T22:58:12.840Z,23.30
2018-08-23T23:00:42.100Z,23.30
2018-08-23T23:03:15.902Z,23.20
2018-08-23T23:05:44.769Z,23.20
2018-08-23T23:08:13.225Z,23.20
2018-08-23T23:10:41.786Z,23.20
2018-08-23T23:13:10.425Z,23.10
2018-08-23T23:15:38.902Z,23.00
2018-08-23T23:18:07.352Z,23.00
2018-08-23T23:20:35.950Z,22.90
2018-08-23T23:23:04.501Z,22.80
2018-08-23T23:25:32.969Z,22.80
2018-08-23T23:28:01.418Z,22.80
2018-08-23T23:30:29.860Z,22.80
2018-08-23T23:32:58.317Z,22.80
2018-08-23T23:35:26.812Z,22.70
2018-08-23T23:37:55.297Z,22.60
2018-08-23T23:40:23.792Z,22.60
2018-08-23T23:42:52.291Z,22.50
2018-08-23T23:45:20.804Z,22.40
2018-08-23T23:47:49.357Z,22.40
2018-08-23T23:50:17.848Z,22.30
2018-08-23T23:52:46.413Z,22.30
2018-08-23T23:55:14.898Z,22.30
2018-08-23T23:57:43.351Z,22.30
